sensor_id;sensor_type;location;lat;lon;timestamp;P1;durP1;ratioP1;P2;durP2;ratioP2
49183;SDS011;35021;49.214;12.270;2023-03-26T00:01:27;1.90;;;0.52;;
49183;SDS011;35021;49.214;12.270;2023-03-26T00:03:55;0.90;;;0.50;;
49183;SDS011;35021;49.214;12.270;2023-03-26T00:06:26;2.28;;;0.70;;
49183;SDS011;35021;49.214;12.270;2023-03-26T00:08:55;2.10;;;0.60;;
49183;SDS011;35021;49.214;12.270;2023-03-26T00:11:24;1.25;;;0.52;;
49183;SDS011;35021;49.214;12.270;2023-03-26T00:13:53;1.67;;;0.57;;
49183;SDS011;35021;49.214;12.270;2023-03-26T00:16:25;2.22;;;0.60;;
49183;SDS011;35021;49.214;12.270;2023-03-26T00:18:54;1.30;;;0.40;;
49183;SDS011;35021;49.214;12.270;2023-03-26T00:21:25;1.70;;;0.60;;
49183;SDS011;35021;49.214;12.270;2023-03-26T00:23:57;1.83;;;0.50;;
49183;SDS011;35021;49.214;12.270;2023-03-26T00:26:26;1.35;;;0.50;;
49183;SDS011;35021;49.214;12.270;2023-03-26T00:28:55;0.80;;;0.40;;
49183;SDS011;35021;49.214;12.270;2023-03-26T00:31:22;1.42;;;0.50;;
49183;SDS011;35021;49.214;12.270;2023-03-26T00:33:50;1.25;;;0.70;;
49183;SDS011;35021;49.214;12.270;2023-03-26T00:36:22;1.65;;;0.68;;
49183;SDS011;35021;49.214;12.270;2023-03-26T00:38:51;1.40;;;0.65;;
49183;SDS011;35021;49.214;12.270;2023-03-26T00:41:19;2.53;;;0.60;;
49183;SDS011;35021;49.214;12.270;2023-03-26T00:43:55;1.88;;;0.60;;
49183;SDS011;35021;49.214;12.270;2023-03-26T00:46:24;1.67;;;0.85;;
49183;SDS011;35021;49.214;12.270;2023-03-26T00:48:52;1.30;;;0.63;;
49183;SDS011;35021;49.214;12.270;2023-03-26T00:51:24;1.50;;;0.60;;
49183;SDS011;35021;49.214;12.270;2023-03-26T00:53:52;0.70;;;0.20;;
49183;SDS011;35021;49.214;12.270;2023-03-26T00:56:19;2.22;;;0.52;;
49183;SDS011;35021;49.214;12.270;2023-03-26T00:58:46;0.85;;;0.65;;
49183;SDS011;35021;49.214;12.270;2023-03-26T01:01:21;1.30;;;0.60;;
49183;SDS011;35021;49.214;12.270;2023-03-26T01:03:56;1.67;;;0.80;;
49183;SDS011;35021;49.214;12.270;2023-03-26T01:06:33;0.73;;;0.40;;
49183;SDS011;35021;49.214;12.270;2023-03-26T01:09:13;0.90;;;0.60;;
49183;SDS011;35021;49.214;12.270;2023-03-26T01:11:42;1.48;;;0.73;;
49183;SDS011;35021;49.214;12.270;2023-03-26T01:14:11;1.67;;;0.50;;
49183;SDS011;35021;49.214;12.270;2023-03-26T01:16:45;1.13;;;0.63;;
49183;SDS011;35021;49.214;12.270;2023-03-26T01:19:24;1.02;;;0.47;;
49183;SDS011;35021;49.214;12.270;2023-03-26T01:22:05;1.85;;;0.55;;
49183;SDS011;35021;49.214;12.270;2023-03-26T01:24:39;1.08;;;0.47;;
49183;SDS011;35021;49.214;12.270;2023-03-26T01:29:40;1.42;;;0.50;;
49183;SDS011;35021;49.214;12.270;2023-03-26T01:32:13;1.48;;;0.70;;
49183;SDS011;35021;49.214;12.270;2023-03-26T01:35:16;1.35;;;0.68;;
49183;SDS011;35021;49.214;12.270;2023-03-26T01:38:13;1.00;;;0.45;;
49183;SDS011;35021;49.214;12.270;2023-03-26T01:40:51;1.25;;;0.70;;
49183;SDS011;35021;49.214;12.270;2023-03-26T01:43:26;1.45;;;0.52;;
49183;SDS011;35021;49.214;12.270;2023-03-26T01:45:59;1.52;;;0.60;;
49183;SDS011;35021;49.214;12.270;2023-03-26T01:48:29;0.75;;;0.45;;
49183;SDS011;35021;49.214;12.270;2023-03-26T01:50:58;2.47;;;0.70;;
49183;SDS011;35021;49.214;12.270;2023-03-26T01:53:25;1.45;;;0.60;;
49183;SDS011;35021;49.214;12.270;2023-03-26T01:55:58;1.90;;;0.82;;
49183;SDS011;35021;49.214;12.270;2023-03-26T01:58:36;2.80;;;0.80;;
49183;SDS011;35021;49.214;12.270;2023-03-26T02:01:17;1.65;;;0.50;;
49183;SDS011;35021;49.214;12.270;2023-03-26T02:07:05;1.70;;;0.68;;
49183;SDS011;35021;49.214;12.270;2023-03-26T02:09:58;2.85;;;0.77;;
49183;SDS011;35021;49.214;12.270;2023-03-26T02:12:30;1.40;;;0.52;;
49183;SDS011;35021;49.214;12.270;2023-03-26T02:14:58;1.75;;;0.60;;
49183;SDS011;35021;49.214;12.270;2023-03-26T02:17:27;1.85;;;0.63;;
49183;SDS011;35021;49.214;12.270;2023-03-26T02:19:55;1.85;;;0.70;;
49183;SDS011;35021;49.214;12.270;2023-03-26T02:22:22;2.58;;;0.73;;
49183;SDS011;35021;49.214;12.270;2023-03-26T02:24:55;2.42;;;1.08;;
49183;SDS011;35021;49.214;12.270;2023-03-26T02:27:22;1.55;;;0.55;;
49183;SDS011;35021;49.214;12.270;2023-03-26T02:29:48;2.47;;;0.68;;
49183;SDS011;35021;49.214;12.270;2023-03-26T02:32:15;1.92;;;0.73;;
49183;SDS011;35021;49.214;12.270;2023-03-26T02:34:44;2.63;;;0.80;;
49183;SDS011;35021;49.214;12.270;2023-03-26T02:37:13;1.80;;;0.73;;
49183;SDS011;35021;49.214;12.270;2023-03-26T02:39:40;2.63;;;0.88;;
49183;SDS011;35021;49.214;12.270;2023-03-26T02:42:07;1.63;;;0.60;;
49183;SDS011;35021;49.214;12.270;2023-03-26T02:44:34;1.33;;;0.63;;
49183;SDS011;35021;49.214;12.270;2023-03-26T02:47:01;2.22;;;0.70;;
49183;SDS011;35021;49.214;12.270;2023-03-26T02:49:28;1.58;;;0.60;;
49183;SDS011;35021;49.214;12.270;2023-03-26T02:51:54;2.88;;;0.90;;
49183;SDS011;35021;49.214;12.270;2023-03-26T02:54:22;1.20;;;0.60;;
49183;SDS011;35021;49.214;12.270;2023-03-26T02:56:49;1.83;;;0.73;;
49183;SDS011;35021;49.214;12.270;2023-03-26T02:59:16;1.50;;;0.60;;
49183;SDS011;35021;49.214;12.270;2023-03-26T03:01:43;1.65;;;0.70;;
49183;SDS011;35021;49.214;12.270;2023-03-26T03:04:09;1.70;;;0.65;;
49183;SDS011;35021;49.214;12.270;2023-03-26T03:06:37;3.42;;;0.90;;
49183;SDS011;35021;49.214;12.270;2023-03-26T03:09:07;2.70;;;0.80;;
49183;SDS011;35021;49.214;12.270;2023-03-26T03:11:34;1.33;;;0.60;;
49183;SDS011;35021;49.214;12.270;2023-03-26T03:14:01;2.83;;;0.90;;
49183;SDS011;35021;49.214;12.270;2023-03-26T03:16:29;4.00;;;1.38;;
49183;SDS011;35021;49.214;12.270;2023-03-26T03:18:56;2.30;;;1.02;;
49183;SDS011;35021;49.214;12.270;2023-03-26T03:21:24;2.85;;;0.88;;
49183;SDS011;35021;49.214;12.270;2023-03-26T03:23:53;3.38;;;0.80;;
49183;SDS011;35021;49.214;12.270;2023-03-26T03:26:26;1.85;;;0.77;;
49183;SDS011;35021;49.214;12.270;2023-03-26T03:28:56;3.30;;;1.10;;
49183;SDS011;35021;49.214;12.270;2023-03-26T03:31:23;2.10;;;0.60;;
49183;SDS011;35021;49.214;12.270;2023-03-26T03:33:51;1.58;;;0.75;;
49183;SDS011;35021;49.214;12.270;2023-03-26T03:36:21;1.92;;;0.88;;
49183;SDS011;35021;49.214;12.270;2023-03-26T03:38:48;2.65;;;0.90;;
49183;SDS011;35021;49.214;12.270;2023-03-26T03:41:15;2.10;;;0.73;;
49183;SDS011;35021;49.214;12.270;2023-03-26T03:43:44;2.28;;;0.88;;
49183;SDS011;35021;49.214;12.270;2023-03-26T03:46:11;2.55;;;0.82;;
49183;SDS011;35021;49.214;12.270;2023-03-26T03:48:38;3.22;;;0.80;;
49183;SDS011;35021;49.214;12.270;2023-03-26T03:51:05;3.08;;;1.00;;
49183;SDS011;35021;49.214;12.270;2023-03-26T03:53:32;4.28;;;1.10;;
49183;SDS011;35021;49.214;12.270;2023-03-26T03:56:02;3.03;;;1.13;;
49183;SDS011;35021;49.214;12.270;2023-03-26T03:58:35;3.47;;;1.20;;
49183;SDS011;35021;49.214;12.270;2023-03-26T04:01:02;4.40;;;1.08;;
49183;SDS011;35021;49.214;12.270;2023-03-26T04:03:29;2.70;;;0.82;;
49183;SDS011;35021;49.214;12.270;2023-03-26T04:05:59;3.58;;;1.10;;
49183;SDS011;35021;49.214;12.270;2023-03-26T04:08:26;3.13;;;1.33;;
49183;SDS011;35021;49.214;12.270;2023-03-26T04:10:53;2.78;;;0.90;;
49183;SDS011;35021;49.214;12.270;2023-03-26T04:13:20;2.13;;;0.77;;
49183;SDS011;35021;49.214;12.270;2023-03-26T04:15:47;2.25;;;0.85;;
49183;SDS011;35021;49.214;12.270;2023-03-26T04:18:14;2.90;;;0.90;;
49183;SDS011;35021;49.214;12.270;2023-03-26T04:20:41;2.15;;;0.82;;
49183;SDS011;35021;49.214;12.270;2023-03-26T04:23:13;2.70;;;0.90;;
49183;SDS011;35021;49.214;12.270;2023-03-26T04:25:41;2.10;;;0.85;;
49183;SDS011;35021;49.214;12.270;2023-03-26T04:28:16;2.67;;;1.00;;
49183;SDS011;35021;49.214;12.270;2023-03-26T04:30:56;2.15;;;1.08;;
49183;SDS011;35021;49.214;12.270;2023-03-26T04:33:27;2.10;;;0.88;;
49183;SDS011;35021;49.214;12.270;2023-03-26T04:35:55;2.72;;;1.02;;
49183;SDS011;35021;49.214;12.270;2023-03-26T04:38:30;2.35;;;0.85;;
49183;SDS011;35021;49.214;12.270;2023-03-26T04:41:04;1.77;;;0.80;;
49183;SDS011;35021;49.214;12.270;2023-03-26T04:43:32;4.00;;;1.10;;
49183;SDS011;35021;49.214;12.270;2023-03-26T04:46:01;3.25;;;0.80;;
49183;SDS011;35021;49.214;12.270;2023-03-26T04:48:28;1.48;;;0.70;;
49183;SDS011;35021;49.214;12.270;2023-03-26T04:50:55;1.60;;;0.75;;
49183;SDS011;35021;49.214;12.270;2023-03-26T04:53:22;4.95;;;1.13;;
49183;SDS011;35021;49.214;12.270;2023-03-26T04:55:52;2.78;;;0.90;;
49183;SDS011;35021;49.214;12.270;2023-03-26T04:58:24;3.35;;;1.13;;
49183;SDS011;35021;49.214;12.270;2023-03-26T05:01:01;2.95;;;1.00;;
49183;SDS011;35021;49.214;12.270;2023-03-26T05:03:36;3.55;;;1.00;;
49183;SDS011;35021;49.214;12.270;2023-03-26T05:06:05;2.67;;;0.90;;
49183;SDS011;35021;49.214;12.270;2023-03-26T05:08:36;2.75;;;1.00;;
49183;SDS011;35021;49.214;12.270;2023-03-26T05:11:02;2.55;;;0.90;;
49183;SDS011;35021;49.214;12.270;2023-03-26T05:13:32;4.75;;;1.15;;
49183;SDS011;35021;49.214;12.270;2023-03-26T05:15:59;2.60;;;1.02;;
49183;SDS011;35021;49.214;12.270;2023-03-26T05:18:29;2.20;;;0.82;;
49183;SDS011;35021;49.214;12.270;2023-03-26T05:20:57;2.25;;;0.80;;
49183;SDS011;35021;49.214;12.270;2023-03-26T05:23:24;2.88;;;1.02;;
49183;SDS011;35021;49.214;12.270;2023-03-26T05:25:51;2.00;;;0.80;;
49183;SDS011;35021;49.214;12.270;2023-03-26T05:28:18;1.95;;;0.90;;
49183;SDS011;35021;49.214;12.270;2023-03-26T05:30:46;2.47;;;0.90;;
49183;SDS011;35021;49.214;12.270;2023-03-26T05:33:12;2.08;;;1.05;;
49183;SDS011;35021;49.214;12.270;2023-03-26T05:35:39;2.67;;;1.20;;
49183;SDS011;35021;49.214;12.270;2023-03-26T05:38:06;1.52;;;0.85;;
49183;SDS011;35021;49.214;12.270;2023-03-26T05:40:33;3.45;;;1.50;;
49183;SDS011;35021;49.214;12.270;2023-03-26T05:43:00;3.47;;;1.40;;
49183;SDS011;35021;49.214;12.270;2023-03-26T05:45:27;5.03;;;1.63;;
49183;SDS011;35021;49.214;12.270;2023-03-26T05:47:54;4.25;;;1.00;;
49183;SDS011;35021;49.214;12.270;2023-03-26T05:50:21;2.88;;;0.95;;
49183;SDS011;35021;49.214;12.270;2023-03-26T05:52:49;3.40;;;1.67;;
49183;SDS011;35021;49.214;12.270;2023-03-26T05:55:16;3.33;;;1.30;;
49183;SDS011;35021;49.214;12.270;2023-03-26T05:57:43;2.30;;;0.80;;
49183;SDS011;35021;49.214;12.270;2023-03-26T06:00:10;3.60;;;1.25;;
49183;SDS011;35021;49.214;12.270;2023-03-26T06:02:37;1.95;;;0.80;;
49183;SDS011;35021;49.214;12.270;2023-03-26T06:05:04;3.13;;;1.00;;
49183;SDS011;35021;49.214;12.270;2023-03-26T06:07:33;2.35;;;0.77;;
49183;SDS011;35021;49.214;12.270;2023-03-26T06:10:00;2.80;;;1.20;;
49183;SDS011;35021;49.214;12.270;2023-03-26T06:12:28;1.85;;;0.98;;
49183;SDS011;35021;49.214;12.270;2023-03-26T06:14:55;2.45;;;1.13;;
49183;SDS011;35021;49.214;12.270;2023-03-26T06:17:21;1.92;;;1.00;;
49183;SDS011;35021;49.214;12.270;2023-03-26T06:19:48;2.38;;;0.85;;
49183;SDS011;35021;49.214;12.270;2023-03-26T06:22:15;1.30;;;0.63;;
49183;SDS011;35021;49.214;12.270;2023-03-26T06:24:42;2.95;;;0.85;;
49183;SDS011;35021;49.214;12.270;2023-03-26T06:27:09;2.80;;;1.00;;
49183;SDS011;35021;49.214;12.270;2023-03-26T06:29:35;1.85;;;0.65;;
49183;SDS011;35021;49.214;12.270;2023-03-26T06:32:02;2.53;;;1.20;;
49183;SDS011;35021;49.214;12.270;2023-03-26T06:34:44;3.28;;;0.90;;
49183;SDS011;35021;49.214;12.270;2023-03-26T06:37:10;2.63;;;1.10;;
49183;SDS011;35021;49.214;12.270;2023-03-26T06:39:37;1.83;;;0.73;;
49183;SDS011;35021;49.214;12.270;2023-03-26T06:42:04;1.73;;;0.80;;
49183;SDS011;35021;49.214;12.270;2023-03-26T06:44:31;2.20;;;0.90;;
49183;SDS011;35021;49.214;12.270;2023-03-26T06:46:58;1.23;;;0.60;;
49183;SDS011;35021;49.214;12.270;2023-03-26T06:49:24;2.97;;;0.80;;
49183;SDS011;35021;49.214;12.270;2023-03-26T06:51:51;1.75;;;0.88;;
49183;SDS011;35021;49.214;12.270;2023-03-26T06:54:18;2.33;;;1.05;;
49183;SDS011;35021;49.214;12.270;2023-03-26T06:56:45;2.17;;;0.80;;
49183;SDS011;35021;49.214;12.270;2023-03-26T06:59:12;1.85;;;1.00;;
49183;SDS011;35021;49.214;12.270;2023-03-26T07:01:39;2.58;;;1.00;;
49183;SDS011;35021;49.214;12.270;2023-03-26T07:04:05;1.65;;;0.68;;
49183;SDS011;35021;49.214;12.270;2023-03-26T07:06:32;2.28;;;1.02;;
49183;SDS011;35021;49.214;12.270;2023-03-26T07:08:59;3.40;;;0.98;;
49183;SDS011;35021;49.214;12.270;2023-03-26T07:11:26;3.03;;;1.00;;
49183;SDS011;35021;49.214;12.270;2023-03-26T07:13:54;1.63;;;0.90;;
49183;SDS011;35021;49.214;12.270;2023-03-26T07:16:21;2.42;;;1.00;;
49183;SDS011;35021;49.214;12.270;2023-03-26T07:18:48;2.50;;;1.10;;
49183;SDS011;35021;49.214;12.270;2023-03-26T07:21:16;2.60;;;0.80;;
49183;SDS011;35021;49.214;12.270;2023-03-26T07:23:45;2.05;;;0.80;;
49183;SDS011;35021;49.214;12.270;2023-03-26T07:26:36;1.75;;;0.98;;
49183;SDS011;35021;49.214;12.270;2023-03-26T07:29:14;2.13;;;0.85;;
49183;SDS011;35021;49.214;12.270;2023-03-26T07:32:01;2.90;;;0.90;;
49183;SDS011;35021;49.214;12.270;2023-03-26T07:41:02;1.77;;;0.75;;
49183;SDS011;35021;49.214;12.270;2023-03-26T07:44:00;2.08;;;0.98;;
49183;SDS011;35021;49.214;12.270;2023-03-26T07:46:29;2.80;;;0.90;;
49183;SDS011;35021;49.214;12.270;2023-03-26T07:48:59;1.23;;;0.70;;
49183;SDS011;35021;49.214;12.270;2023-03-26T07:51:27;1.40;;;0.63;;
49183;SDS011;35021;49.214;12.270;2023-03-26T07:53:54;3.60;;;1.02;;
49183;SDS011;35021;49.214;12.270;2023-03-26T07:59:02;2.65;;;0.80;;
49183;SDS011;35021;49.214;12.270;2023-03-26T08:05:15;2.00;;;0.90;;
49183;SDS011;35021;49.214;12.270;2023-03-26T08:10:25;2.25;;;1.17;;
49183;SDS011;35021;49.214;12.270;2023-03-26T08:13:21;3.35;;;1.27;;
49183;SDS011;35021;49.214;12.270;2023-03-26T08:21:29;4.63;;;1.27;;
49183;SDS011;35021;49.214;12.270;2023-03-26T08:26:34;2.83;;;1.10;;
49183;SDS011;35021;49.214;12.270;2023-03-26T08:31:49;1.60;;;1.05;;
49183;SDS011;35021;49.214;12.270;2023-03-26T08:34:16;1.52;;;0.93;;
49183;SDS011;35021;49.214;12.270;2023-03-26T08:36:42;2.05;;;0.90;;
49183;SDS011;35021;49.214;12.270;2023-03-26T08:39:09;1.85;;;1.00;;
49183;SDS011;35021;49.214;12.270;2023-03-26T08:50:29;4.20;;;1.23;;
49183;SDS011;35021;49.214;12.270;2023-03-26T09:05:20;1.90;;;0.82;;
49183;SDS011;35021;49.214;12.270;2023-03-26T09:28:20;2.33;;;1.17;;
49183;SDS011;35021;49.214;12.270;2023-03-26T09:31:26;3.13;;;1.27;;
49183;SDS011;35021;49.214;12.270;2023-03-26T09:34:31;2.22;;;1.10;;
49183;SDS011;35021;49.214;12.270;2023-03-26T09:37:28;2.40;;;0.98;;
49183;SDS011;35021;49.214;12.270;2023-03-26T09:40:27;2.65;;;1.00;;
49183;SDS011;35021;49.214;12.270;2023-03-26T09:46:21;3.33;;;1.00;;
49183;SDS011;35021;49.214;12.270;2023-03-26T09:54:43;1.88;;;0.80;;
49183;SDS011;35021;49.214;12.270;2023-03-26T09:57:59;2.20;;;1.00;;
49183;SDS011;35021;49.214;12.270;2023-03-26T10:01:02;4.35;;;1.05;;
49183;SDS011;35021;49.214;12.270;2023-03-26T10:06:45;4.45;;;1.42;;
49183;SDS011;35021;49.214;12.270;2023-03-26T10:12:22;2.88;;;1.27;;
49183;SDS011;35021;49.214;12.270;2023-03-26T10:18:14;3.80;;;1.20;;
49183;SDS011;35021;49.214;12.270;2023-03-26T10:21:00;2.42;;;1.02;;
49183;SDS011;35021;49.214;12.270;2023-03-26T10:26:16;2.65;;;0.93;;
49183;SDS011;35021;49.214;12.270;2023-03-26T10:37:49;1.80;;;1.20;;
49183;SDS011;35021;49.214;12.270;2023-03-26T10:43:42;3.22;;;1.40;;
49183;SDS011;35021;49.214;12.270;2023-03-26T10:46:46;4.10;;;1.30;;
49183;SDS011;35021;49.214;12.270;2023-03-26T10:52:53;2.95;;;1.30;;
49183;SDS011;35021;49.214;12.270;2023-03-26T10:55:39;2.72;;;1.13;;
49183;SDS011;35021;49.214;12.270;2023-03-26T11:02:19;4.43;;;1.20;;
49183;SDS011;35021;49.214;12.270;2023-03-26T11:11:35;3.22;;;1.38;;
49183;SDS011;35021;49.214;12.270;2023-03-26T11:14:20;3.45;;;1.10;;
49183;SDS011;35021;49.214;12.270;2023-03-26T11:17:11;3.47;;;1.80;;
49183;SDS011;35021;49.214;12.270;2023-03-26T11:20:12;5.15;;;1.63;;
49183;SDS011;35021;49.214;12.270;2023-03-26T11:25:45;3.55;;;1.30;;
49183;SDS011;35021;49.214;12.270;2023-03-26T11:28:50;2.45;;;1.17;;
49183;SDS011;35021;49.214;12.270;2023-03-26T11:31:58;2.95;;;1.38;;
49183;SDS011;35021;49.214;12.270;2023-03-26T11:34:58;3.25;;;1.55;;
49183;SDS011;35021;49.214;12.270;2023-03-26T11:37:40;4.22;;;1.30;;
49183;SDS011;35021;49.214;12.270;2023-03-26T11:40:17;4.30;;;1.40;;
49183;SDS011;35021;49.214;12.270;2023-03-26T11:43:01;2.03;;;0.98;;
49183;SDS011;35021;49.214;12.270;2023-03-26T11:45:34;2.03;;;0.85;;
49183;SDS011;35021;49.214;12.270;2023-03-26T11:48:09;3.30;;;1.23;;
49183;SDS011;35021;49.214;12.270;2023-03-26T11:50:43;3.92;;;1.52;;
49183;SDS011;35021;49.214;12.270;2023-03-26T11:53:18;2.30;;;0.93;;
49183;SDS011;35021;49.214;12.270;2023-03-26T11:55:50;2.13;;;0.80;;
49183;SDS011;35021;49.214;12.270;2023-03-26T12:01:14;2.35;;;0.90;;
49183;SDS011;35021;49.214;12.270;2023-03-26T12:03:54;2.85;;;1.42;;
49183;SDS011;35021;49.214;12.270;2023-03-26T12:06:34;3.17;;;0.90;;
49183;SDS011;35021;49.214;12.270;2023-03-26T12:09:01;2.20;;;0.77;;
49183;SDS011;35021;49.214;12.270;2023-03-26T12:11:29;1.58;;;0.77;;
49183;SDS011;35021;49.214;12.270;2023-03-26T12:14:01;2.38;;;1.00;;
49183;SDS011;35021;49.214;12.270;2023-03-26T12:16:30;2.28;;;1.05;;
49183;SDS011;35021;49.214;12.270;2023-03-26T12:19:30;1.52;;;0.85;;
49183;SDS011;35021;49.214;12.270;2023-03-26T12:21:52;2.95;;;1.30;;
49183;SDS011;35021;49.214;12.270;2023-03-26T12:24:31;1.60;;;0.70;;
49183;SDS011;35021;49.214;12.270;2023-03-26T12:27:22;2.08;;;0.80;;
49183;SDS011;35021;49.214;12.270;2023-03-26T12:29:50;4.00;;;0.95;;
49183;SDS011;35021;49.214;12.270;2023-03-26T12:32:20;2.90;;;1.30;;
49183;SDS011;35021;49.214;12.270;2023-03-26T12:34:50;2.25;;;1.00;;
49183;SDS011;35021;49.214;12.270;2023-03-26T12:37:36;2.05;;;1.10;;
49183;SDS011;35021;49.214;12.270;2023-03-26T12:40:27;2.55;;;1.00;;
49183;SDS011;35021;49.214;12.270;2023-03-26T12:42:59;2.03;;;0.93;;
49183;SDS011;35021;49.214;12.270;2023-03-26T12:45:53;2.30;;;1.10;;
49183;SDS011;35021;49.214;12.270;2023-03-26T12:48:42;2.63;;;1.05;;
49183;SDS011;35021;49.214;12.270;2023-03-26T12:51:29;2.13;;;0.90;;
49183;SDS011;35021;49.214;12.270;2023-03-26T12:54:12;2.80;;;1.25;;
49183;SDS011;35021;49.214;12.270;2023-03-26T12:59:45;2.30;;;1.30;;
49183;SDS011;35021;49.214;12.270;2023-03-26T13:16:47;1.58;;;0.90;;
49183;SDS011;35021;49.214;12.270;2023-03-26T13:22:28;2.35;;;1.50;;
49183;SDS011;35021;49.214;12.270;2023-03-26T13:25:12;2.38;;;1.30;;
49183;SDS011;35021;49.214;12.270;2023-03-26T13:30:33;2.35;;;1.30;;
49183;SDS011;35021;49.214;12.270;2023-03-26T13:36:17;3.17;;;1.33;;
49183;SDS011;35021;49.214;12.270;2023-03-26T13:47:30;3.20;;;1.40;;
49183;SDS011;35021;49.214;12.270;2023-03-26T13:52:54;2.30;;;1.42;;
49183;SDS011;35021;49.214;12.270;2023-03-26T13:55:32;2.42;;;1.23;;
49183;SDS011;35021;49.214;12.270;2023-03-26T14:09:02;3.03;;;1.20;;
49183;SDS011;35021;49.214;12.270;2023-03-26T14:11:50;2.70;;;1.38;;
49183;SDS011;35021;49.214;12.270;2023-03-26T14:14:37;2.58;;;1.42;;
49183;SDS011;35021;49.214;12.270;2023-03-26T14:17:16;2.92;;;1.13;;
49183;SDS011;35021;49.214;12.270;2023-03-26T14:31:01;1.80;;;0.80;;
49183;SDS011;35021;49.214;12.270;2023-03-26T14:33:51;3.13;;;1.00;;
49183;SDS011;35021;49.214;12.270;2023-03-26T14:36:58;1.63;;;0.90;;
49183;SDS011;35021;49.214;12.270;2023-03-26T14:42:52;1.25;;;0.88;;
49183;SDS011;35021;49.214;12.270;2023-03-26T14:45:59;2.72;;;1.02;;
49183;SDS011;35021;49.214;12.270;2023-03-26T14:54:01;1.65;;;0.80;;
49183;SDS011;35021;49.214;12.270;2023-03-26T14:59:28;2.03;;;0.80;;
49183;SDS011;35021;49.214;12.270;2023-03-26T15:10:17;1.55;;;0.55;;
49183;SDS011;35021;49.214;12.270;2023-03-26T15:19:02;1.77;;;0.70;;
49183;SDS011;35021;49.214;12.270;2023-03-26T15:21:59;1.48;;;0.70;;
49183;SDS011;35021;49.214;12.270;2023-03-26T15:25:15;1.80;;;0.70;;
49183;SDS011;35021;49.214;12.270;2023-03-26T15:31:08;2.67;;;0.57;;
49183;SDS011;35021;49.214;12.270;2023-03-26T15:58:43;1.90;;;0.77;;
49183;SDS011;35021;49.214;12.270;2023-03-26T16:01:24;2.00;;;0.90;;
49183;SDS011;35021;49.214;12.270;2023-03-26T16:07:02;1.95;;;1.10;;
49183;SDS011;35021;49.214;12.270;2023-03-26T16:09:59;2.08;;;1.13;;
49183;SDS011;35021;49.214;12.270;2023-03-26T16:15:40;1.05;;;0.80;;
49183;SDS011;35021;49.214;12.270;2023-03-26T16:20:52;1.23;;;0.75;;
49183;SDS011;35021;49.214;12.270;2023-03-26T16:23:33;1.83;;;0.93;;
49183;SDS011;35021;49.214;12.270;2023-03-26T16:43:31;1.30;;;0.80;;
49183;SDS011;35021;49.214;12.270;2023-03-26T17:05:21;4.78;;;1.90;;
49183;SDS011;35021;49.214;12.270;2023-03-26T17:07:52;6.95;;;2.95;;
49183;SDS011;35021;49.214;12.270;2023-03-26T17:10:35;7.60;;;3.70;;
49183;SDS011;35021;49.214;12.270;2023-03-26T17:13:08;9.93;;;4.95;;
49183;SDS011;35021;49.214;12.270;2023-03-26T17:21:46;6.25;;;3.17;;
49183;SDS011;35021;49.214;12.270;2023-03-26T17:24:37;4.57;;;2.40;;
49183;SDS011;35021;49.214;12.270;2023-03-26T17:32:51;3.40;;;1.80;;
49183;SDS011;35021;49.214;12.270;2023-03-26T17:38:57;3.60;;;2.70;;
49183;SDS011;35021;49.214;12.270;2023-03-26T17:41:53;7.53;;;4.55;;
49183;SDS011;35021;49.214;12.270;2023-03-26T17:44:26;5.10;;;4.60;;
49183;SDS011;35021;49.214;12.270;2023-03-26T17:47:02;4.03;;;3.60;;
49183;SDS011;35021;49.214;12.270;2023-03-26T17:49:32;3.28;;;2.92;;
49183;SDS011;35021;49.214;12.270;2023-03-26T17:52:02;3.00;;;2.70;;
49183;SDS011;35021;49.214;12.270;2023-03-26T17:54:44;2.67;;;2.30;;
49183;SDS011;35021;49.214;12.270;2023-03-26T17:59:52;3.20;;;2.25;;
49183;SDS011;35021;49.214;12.270;2023-03-26T18:02:29;2.63;;;2.30;;
49183;SDS011;35021;49.214;12.270;2023-03-26T18:05:02;2.90;;;1.58;;
49183;SDS011;35021;49.214;12.270;2023-03-26T18:10:48;2.80;;;1.45;;
49183;SDS011;35021;49.214;12.270;2023-03-26T18:13:53;3.20;;;1.50;;
49183;SDS011;35021;49.214;12.270;2023-03-26T18:16:49;3.05;;;1.40;;
49183;SDS011;35021;49.214;12.270;2023-03-26T18:19:20;1.55;;;1.27;;
49183;SDS011;35021;49.214;12.270;2023-03-26T18:21:48;2.85;;;1.30;;
49183;SDS011;35021;49.214;12.270;2023-03-26T18:24:27;1.95;;;1.10;;
49183;SDS011;35021;49.214;12.270;2023-03-26T18:26:55;2.13;;;1.45;;
49183;SDS011;35021;49.214;12.270;2023-03-26T18:29:31;3.17;;;1.30;;
49183;SDS011;35021;49.214;12.270;2023-03-26T18:34:36;2.65;;;1.65;;
49183;SDS011;35021;49.214;12.270;2023-03-26T18:39:43;3.72;;;1.50;;
49183;SDS011;35021;49.214;12.270;2023-03-26T18:42:38;2.60;;;1.83;;
49183;SDS011;35021;49.214;12.270;2023-03-26T18:47:59;2.42;;;1.90;;
49183;SDS011;35021;49.214;12.270;2023-03-26T18:50:33;2.88;;;1.88;;
49183;SDS011;35021;49.214;12.270;2023-03-26T18:53:04;2.45;;;1.92;;
49183;SDS011;35021;49.214;12.270;2023-03-26T18:55:34;3.38;;;2.00;;
49183;SDS011;35021;49.214;12.270;2023-03-26T18:58:15;2.58;;;1.90;;
49183;SDS011;35021;49.214;12.270;2023-03-26T19:00:51;2.97;;;1.92;;
49183;SDS011;35021;49.214;12.270;2023-03-26T19:03:21;2.60;;;1.90;;
49183;SDS011;35021;49.214;12.270;2023-03-26T19:05:51;2.45;;;2.05;;
49183;SDS011;35021;49.214;12.270;2023-03-26T19:08:20;3.20;;;2.40;;
49183;SDS011;35021;49.214;12.270;2023-03-26T19:10:49;3.55;;;1.83;;
49183;SDS011;35021;49.214;12.270;2023-03-26T19:13:21;2.72;;;2.17;;
49183;SDS011;35021;49.214;12.270;2023-03-26T19:15:49;2.53;;;1.95;;
49183;SDS011;35021;49.214;12.270;2023-03-26T19:18:20;6.80;;;2.08;;
49183;SDS011;35021;49.214;12.270;2023-03-26T19:20:54;3.20;;;2.05;;
49183;SDS011;35021;49.214;12.270;2023-03-26T19:23:34;2.47;;;1.83;;
49183;SDS011;35021;49.214;12.270;2023-03-26T19:26:05;1.92;;;1.55;;
49183;SDS011;35021;49.214;12.270;2023-03-26T19:28:38;2.30;;;1.70;;
49183;SDS011;35021;49.214;12.270;2023-03-26T19:34:01;3.92;;;1.67;;
49183;SDS011;35021;49.214;12.270;2023-03-26T19:36:56;2.50;;;1.98;;
49183;SDS011;35021;49.214;12.270;2023-03-26T19:39:39;3.08;;;2.10;;
49183;SDS011;35021;49.214;12.270;2023-03-26T19:42:22;2.83;;;2.13;;
49183;SDS011;35021;49.214;12.270;2023-03-26T19:44:53;3.15;;;2.33;;
49183;SDS011;35021;49.214;12.270;2023-03-26T19:47:22;3.58;;;2.15;;
49183;SDS011;35021;49.214;12.270;2023-03-26T19:53:10;2.90;;;2.03;;
49183;SDS011;35021;49.214;12.270;2023-03-26T19:55:56;2.45;;;2.10;;
49183;SDS011;35021;49.214;12.270;2023-03-26T19:58:36;4.43;;;1.90;;
49183;SDS011;35021;49.214;12.270;2023-03-26T20:01:03;2.65;;;1.83;;
49183;SDS011;35021;49.214;12.270;2023-03-26T20:03:38;2.72;;;1.60;;
49183;SDS011;35021;49.214;12.270;2023-03-26T20:08:37;2.30;;;1.70;;
49183;SDS011;35021;49.214;12.270;2023-03-26T20:11:11;1.85;;;1.23;;
49183;SDS011;35021;49.214;12.270;2023-03-26T20:13:48;2.47;;;1.42;;
49183;SDS011;35021;49.214;12.270;2023-03-26T20:16:22;2.45;;;1.20;;
49183;SDS011;35021;49.214;12.270;2023-03-26T20:18:54;1.85;;;1.08;;
49183;SDS011;35021;49.214;12.270;2023-03-26T20:21:32;2.00;;;1.10;;
49183;SDS011;35021;49.214;12.270;2023-03-26T20:24:00;1.33;;;0.90;;
49183;SDS011;35021;49.214;12.270;2023-03-26T20:26:27;1.45;;;1.15;;
49183;SDS011;35021;49.214;12.270;2023-03-26T20:28:54;2.08;;;1.05;;
49183;SDS011;35021;49.214;12.270;2023-03-26T20:31:22;1.25;;;0.90;;
49183;SDS011;35021;49.214;12.270;2023-03-26T20:33:51;1.30;;;0.98;;
49183;SDS011;35021;49.214;12.270;2023-03-26T20:36:19;1.65;;;1.02;;
49183;SDS011;35021;49.214;12.270;2023-03-26T20:39:00;3.30;;;1.00;;